METAR AND TAF INFORMATION
METAR FOR SBUL
ADDS - METARS form results

(0241 UTC 21 February 2019)
Data provider http://aviationweather.gov/metar/data/
 
Forecast for: SBUL (UBERLANDIA , BR)
Text: TAF SBUL 202130Z 2100/2112 02005KT 8000 NSCTN20/2109Z TX23/2111Z
Forecast period: 0000 to 1200 UTC 21 February 2019
Forecast type: FROM: standard forecast or significant change
Winds: from the NNE (20 degrees) at 6 MPH (5 knots; 2.6 m/s)
Visibility: 5 miles (8 km)
Ceiling: unknown
Clouds: missing
Weather: no significant weather forecast for this period
Text: TEMPO 2109/2112 06005KT RMK PHG
Forecast period: 0900 to 1200 UTC 21 February 2019
Forecast type: TEMPORARY: The following changes expected for less than half the time period
Winds: from the ENE (60 degrees) at 6 MPH (5 knots; 2.6 m/s)
Visibility: missing
Ceiling: unknown
Clouds: missing
Weather: no significant weather forecast for this period

 AIRPORT MAP

 RUNWAY INFORMATION
Runway 4 Runway length 6398 ft Runway width 148 ft
Runway elevation 0 ft Runway displaced threshold 0 ft Runway heading 0
Runway 22 Runway length 6398 ft Runway width 148 ft
Runway elevation 0 ft Runway displaced threshold 0 ft Runway heading 0

 AIRPORT FREQUENCIES
Type APP Name APP Frequency 120.8 MHZ
Type RDO Name RDO Frequency 118.8 MHZ
Type TWR Name TWR Frequency 118.8 MHZ

 AIRPORT NEAR NAVIGATION AIDS
Type VOR-DME Name Uberlandia Frequency 116100 KHZ
Type NDB Name Uberlandia Frequency 350 KHZ



Powered by Virtual Airlines Manager [v2.6.2]